Houma, Louisiana
Current Conditions -  °F | °C
As of 4:50 PM on Thursday 23 Oct 2014 (Local Time) from KHUM Reporting Station
Clear Clear  
Wind Chill: 72°   Ceiling: Unl
Heat Index: 72°   Visibility: 7mi
Dew Point: 48°   Wind: 7mph
Humidity: 43%   Direction: 10°N
Pressure: 30.03"   Gusts: NA
Location:  29.6°N, 90.72°W
Report Text: KHUM 232150Z 01006KT 7SM SKC 22/09 A3003 RMK ATIS U VA/RY36 DV
Loading
Personal Weather Stations






























Interactive Weather Map
Tropical Storm Tracking
New forecast layout! Learn more

10-Day Weather Forecast

Advertisements
Track Severe Weather on mobile